Zapata, TX

03:01 PM CDT am 20. September 2014 (GMT -0500)
Zapata | Change Station
CLOSE
Current Station
Flughafen
Location: Zapata,
Höhe: 423 ft
Wetterstationen in der Umgebung
aktive Warnung: Flash Flood Watch

Höhe 423 ft 26.97 °N, 99.25 °W | Updated 26 minutes ago

Teils Wolkig
Teils Wolkig
88 °F
gefühlte 94 °F
N
9
Wind Wechselnd Wind aus Ost

Heute
Max. -- | schwach -- °F
--% Regenrisiko
Gestern
Max. -- | schwach -- °F
Precip. -- inch
7:24 AM 7:35 PM
Letztes Viertel, 11% visible
Druck 29.88 inch
Sichtweite 10.0 Meilen
Wolken Teils Wolkig 2800 ft
Hitzeindex 94 °F
Taupunkt 71 °F
Feuchtigkeit 57%
Regen 0.00 inch
Schneehöhe Nicht verfügbar..
UV 8 von 12
Pollen 10.40 von 12
Luftqualität Nicht verfügbar..
Flu Activity Nicht verfügbar..
METAR KAPY 201935Z AUTO 10008KT 10SM VCTS SCT028 31/21 A2988 RMK AO2 LTG DSNT S THRU W T03110217

More Conditions Fewer Conditions

Druck 29.88 inch
Sichtweite 10.0 Meilen
Wolken Teils Wolkig 2800 ft
Hitzeindex 94 °F
Taupunkt 71 °F
Feuchtigkeit 57%
Regen 0.00 inch
Schneehöhe Nicht verfügbar..
UV 8 von 12
Pollen 10.40 von 12
Luftqualität Nicht verfügbar..
Flu Activity Nicht verfügbar..
METAR KAPY 201935Z AUTO 10008KT 10SM VCTS SCT028 31/21 A2988 RMK AO2 LTG DSNT S THRU W T03110217

More Conditions Fewer Conditions

Nowcast | as of 1:33 PM CDT on September 20, 2014

Flash Flood Watch in effect until 7 PM CDT this evening... Through 330 PM...scattered showers and thunderstorms will continue to develop and slowly move across the Rio Grande Valley. This activity will produce periods of moderate to heavy rainfall. New rainfall accumulations of one quarter to one inch with isolated amounts of one and a half inches can be expected.

×

10-Day Weather Forecast

Almanac

Astronomie

Sep. 20, 2014 Aufgang Untergang
Genaue Zeit 07:24 CDT 19:35 CDT
Bürgerliche Dämmerung 07:01 CDT 19:58 CDT
Nautische Dämmerung 06:34 CDT 20:25 CDT
Astronomische Dämmerung 06:07 CDT 20:53 CDT
Mond 04:19 CDT 17:27 CDT
Länge des sichtbaren Lichts 12h 57m
Tageslänge
12h 11m
Tomorrow will be 1m 35s shorter.
Letztes Viertel, 11% of the Moon is Illuminated
Heute
Letztes Viertel
Sept 24
Neu
Okt 1
Erstes Viertel
Okt 8
Vollmond
Okt 15
Letztes Viertel

Heutige Rekorde

State Highs State Lows

Community

WunderPhotos

Upload Photos

1,754,927 Fotos hochgeladen!

WunderBlogs® & News

Nearby

Schneehöhe

Station Depth Höhe
Kein Neuschnee gemeldet.

Erdbebenaktivität

Stadt Distance Mag. Time & Date
No recent earthquake activity has been reported nearby.
Minimum magnitude displayed is 2.5.

küstennahe Wassertemperaturen

Ort Temperatur
Kein Stationsbericht

Wetterstationen in der Umgebung